createdAt,value
2022-08-25T00:01:54.234Z,25.35
2022-08-25T00:04:24.071Z,25.32
2022-08-25T00:06:53.539Z,25.28
2022-08-25T00:09:25.157Z,25.28
2022-08-25T00:11:53.248Z,25.26
2022-08-25T00:14:28.143Z,25.25
2022-08-25T00:16:56.117Z,25.22
2022-08-25T00:19:28.792Z,25.21
2022-08-25T00:21:56.306Z,25.15
2022-08-25T00:24:24.717Z,25.12
2022-08-25T00:26:56.369Z,25.08
2022-08-25T00:29:28.683Z,25.07
2022-08-25T00:31:57.957Z,25.03
2022-08-25T00:34:31.891Z,24.99
2022-08-25T00:36:58.940Z,24.96
2022-08-25T00:39:27.607Z,24.91
2022-08-25T00:41:57.598Z,24.90
2022-08-25T00:44:28.217Z,24.89
2022-08-25T00:47:02.497Z,24.88
2022-08-25T00:49:41.595Z,24.84
2022-08-25T00:52:08.476Z,24.81
2022-08-25T00:54:49.956Z,24.80
2022-08-25T00:57:34.032Z,24.77
2022-08-25T01:00:12.898Z,24.74
2022-08-25T01:02:40.459Z,24.72
2022-08-25T01:05:08.183Z,24.69
2022-08-25T01:07:37.179Z,24.66
2022-08-25T01:10:07.829Z,24.65
2022-08-25T01:12:37.546Z,24.64
2022-08-25T01:15:11.670Z,24.63
2022-08-25T01:17:54.744Z,24.62
2022-08-25T01:20:29.383Z,24.62
2022-08-25T01:22:58.298Z,24.63
2022-08-25T01:25:39.615Z,24.62
2022-08-25T01:28:07.215Z,24.60
2022-08-25T01:30:35.090Z,24.58
2022-08-25T01:33:07.806Z,24.57
2022-08-25T01:35:36.212Z,24.53
2022-08-25T01:38:06.451Z,24.53
2022-08-25T01:40:36.154Z,24.49
2022-08-25T01:43:16.176Z,24.46
2022-08-25T01:45:47.467Z,24.44
2022-08-25T01:48:15.949Z,24.43
2022-08-25T01:50:44.250Z,24.41
2022-08-25T01:53:23.155Z,24.39
2022-08-25T01:55:54.213Z,24.37
2022-08-25T01:58:46.570Z,24.34
2022-08-25T02:01:19.007Z,24.33
2022-08-25T02:03:49.620Z,24.30
2022-08-25T02:06:29.804Z,24.30
2022-08-25T02:09:02.717Z,24.26
2022-08-25T02:11:29.720Z,24.25
2022-08-25T02:13:57.111Z,24.23
2022-08-25T02:16:31.512Z,24.21
2022-08-25T02:18:59.406Z,24.19
2022-08-25T02:21:27.088Z,24.16
2022-08-25T02:23:54.645Z,24.16
2022-08-25T02:26:22.557Z,24.14
2022-08-25T02:28:51.606Z,24.14
2022-08-25T02:31:22.691Z,24.12
2022-08-25T02:33:51.565Z,24.13
2022-08-25T02:36:19.856Z,24.10
2022-08-25T02:38:47.462Z,24.09
2022-08-25T02:41:25.207Z,24.08
2022-08-25T02:43:58.948Z,24.03
2022-08-25T02:46:26.166Z,24.03
2022-08-25T02:48:53.737Z,24.00
2022-08-25T02:51:23.809Z,23.98
2022-08-25T02:53:51.295Z,23.94
2022-08-25T02:56:19.845Z,23.89
2022-08-25T02:58:47.828Z,23.84
2022-08-25T03:01:16.367Z,23.82
2022-08-25T03:03:46.135Z,23.80
2022-08-25T03:06:16.394Z,23.77
2022-08-25T03:08:44.611Z,23.74
2022-08-25T03:11:12.370Z,23.72
2022-08-25T03:13:39.788Z,23.69
2022-08-25T03:16:11.021Z,23.66
2022-08-25T03:18:40.798Z,23.65
2022-08-25T03:21:09.367Z,23.63
2022-08-25T03:23:36.313Z,23.62
2022-08-25T03:26:21.970Z,23.61
2022-08-25T03:28:49.057Z,23.59
2022-08-25T03:31:16.257Z,23.61
2022-08-25T03:33:43.556Z,23.62
2022-08-25T03:36:13.856Z,23.64
2022-08-25T03:38:42.012Z,23.63
2022-08-25T03:41:32.641Z,23.61
2022-08-25T03:44:01.302Z,23.62
2022-08-25T03:46:35.709Z,23.62
2022-08-25T03:49:05.217Z,23.63
2022-08-25T03:51:37.607Z,23.61
2022-08-25T03:54:05.760Z,23.58
2022-08-25T03:56:33.387Z,23.58
2022-08-25T03:59:01.331Z,23.58
2022-08-25T04:01:29.056Z,23.59
2022-08-25T04:03:56.302Z,23.59
2022-08-25T04:06:23.619Z,23.56
2022-08-25T04:08:52.882Z,23.56
2022-08-25T04:11:23.198Z,23.56
2022-08-25T04:13:52.042Z,23.51
2022-08-25T04:17:02.212Z,23.46
2022-08-25T04:19:29.367Z,23.43
2022-08-25T04:21:57.341Z,23.42
2022-08-25T04:24:25.152Z,23.38
2022-08-25T04:26:53.223Z,23.36
2022-08-25T04:29:23.980Z,23.33
2022-08-25T04:31:53.199Z,23.30
2022-08-25T04:34:30.289Z,23.31
2022-08-25T04:37:01.312Z,23.29
2022-08-25T04:39:28.961Z,23.27
2022-08-25T04:41:56.405Z,23.23
2022-08-25T04:44:23.711Z,23.20
2022-08-25T04:46:50.888Z,23.19
2022-08-25T04:49:18.542Z,23.17
2022-08-25T04:51:46.024Z,23.16
2022-08-25T04:54:21.908Z,23.15
2022-08-25T04:56:54.563Z,23.15
2022-08-25T04:59:30.527Z,23.15
2022-08-25T05:02:03.332Z,23.13
2022-08-25T05:04:33.080Z,23.14
2022-08-25T05:07:01.317Z,23.13
2022-08-25T05:09:29.187Z,23.12
2022-08-25T05:12:04.192Z,23.11
2022-08-25T05:14:32.489Z,23.12
2022-08-25T05:16:59.773Z,23.15
2022-08-25T05:19:27.315Z,23.18
2022-08-25T05:21:54.644Z,23.17
2022-08-25T05:25:26.320Z,23.19
2022-08-25T05:27:53.545Z,23.18
2022-08-25T05:30:20.744Z,23.19
2022-08-25T05:32:47.953Z,23.22
2022-08-25T05:35:16.261Z,23.25
2022-08-25T05:37:43.674Z,23.29
2022-08-25T05:40:11.708Z,23.33
2022-08-25T05:42:40.529Z,23.36
2022-08-25T05:45:09.905Z,23.40
2022-08-25T05:47:44.443Z,23.43
2022-08-25T05:50:12.432Z,23.45
2022-08-25T05:52:39.824Z,23.45
2022-08-25T05:55:07.479Z,23.47
2022-08-25T05:57:35.933Z,23.50
2022-08-25T06:00:09.163Z,23.55
2022-08-25T06:02:43.882Z,23.58
2022-08-25T06:05:16.309Z,23.62
2022-08-25T06:07:45.157Z,23.63
2022-08-25T06:10:13.710Z,23.67
2022-08-25T06:12:46.494Z,23.70
2022-08-25T06:15:17.459Z,23.72
2022-08-25T06:17:44.722Z,23.75
2022-08-25T06:20:22.130Z,23.80
2022-08-25T06:22:54.740Z,23.82
2022-08-25T06:25:24.873Z,23.86
2022-08-25T06:27:52.195Z,23.89
2022-08-25T06:30:25.734Z,23.92
2022-08-25T06:32:56.002Z,23.95
2022-08-25T06:36:50.364Z,23.98
2022-08-25T06:39:17.540Z,24.00
2022-08-25T06:41:44.819Z,24.03
2022-08-25T06:44:12.650Z,24.06
2022-08-25T06:46:39.728Z,24.08
2022-08-25T06:49:09.503Z,24.12
2022-08-25T06:51:38.399Z,24.14
2022-08-25T06:54:07.994Z,24.16
2022-08-25T06:56:35.016Z,24.19
2022-08-25T06:59:04.714Z,24.22
2022-08-25T07:01:32.675Z,24.26
2022-08-25T07:04:02.943Z,24.30
2022-08-25T07:06:35.370Z,24.35
2022-08-25T07:12:06.380Z,24.44
2022-08-25T07:14:33.464Z,24.46
2022-08-25T07:17:00.916Z,24.51
2022-08-25T07:19:28.412Z,24.54
2022-08-25T07:21:59.245Z,24.58
2022-08-25T07:24:26.404Z,24.61
2022-08-25T07:26:53.656Z,24.66
2022-08-25T07:29:31.718Z,24.69
2022-08-25T07:32:02.595Z,24.75
2022-08-25T07:34:52.321Z,24.78
2022-08-25T07:40:18.300Z,24.88
2022-08-25T07:42:46.729Z,24.93
2022-08-25T07:45:17.304Z,24.99
2022-08-25T07:47:51.592Z,25.04
2022-08-25T07:50:19.868Z,25.10
2022-08-25T07:52:53.931Z,25.15
2022-08-25T07:55:28.151Z,25.21
2022-08-25T07:57:57.499Z,25.26
2022-08-25T08:00:27.839Z,25.31
2022-08-25T08:02:55.609Z,25.38
2022-08-25T08:05:24.237Z,25.44
2022-08-25T08:07:53.071Z,25.50
2022-08-25T08:13:10.340Z,25.63
2022-08-25T08:15:38.036Z,25.69
2022-08-25T08:19:02.798Z,25.73
2022-08-25T08:21:35.086Z,25.77
2022-08-25T08:24:05.084Z,25.84
2022-08-25T08:26:57.411Z,25.92
2022-08-25T08:29:25.301Z,25.97
2022-08-25T08:31:53.406Z,26.04
2022-08-25T08:34:24.807Z,26.09
2022-08-25T08:36:53.048Z,26.18
2022-08-25T08:39:20.282Z,26.19
2022-08-25T08:42:11.287Z,26.24
2022-08-25T08:44:45.287Z,26.29
2022-08-25T08:47:40.177Z,26.35
2022-08-25T08:50:38.177Z,26.41
2022-08-25T08:53:34.107Z,26.43
2022-08-25T08:56:07.574Z,26.53
2022-08-25T08:58:49.905Z,26.59
2022-08-25T09:01:28.515Z,26.66
2022-08-25T09:04:20.327Z,26.73
2022-08-25T09:06:52.287Z,26.78
2022-08-25T09:09:30.962Z,26.89
2022-08-25T09:12:12.273Z,26.92
2022-08-25T09:14:55.054Z,27.01
2022-08-25T09:17:57.990Z,27.06
2022-08-25T09:20:47.339Z,27.14
2022-08-25T09:23:49.574Z,27.21
2022-08-25T09:27:45.402Z,27.31
2022-08-25T09:30:19.302Z,27.40
2022-08-25T09:33:02.156Z,27.49
2022-08-25T09:35:35.007Z,27.57
2022-08-25T09:38:08.984Z,27.63
2022-08-25T09:40:42.575Z,27.70
2022-08-25T09:43:19.363Z,27.76
2022-08-25T09:46:10.811Z,27.85
2022-08-25T09:48:48.441Z,27.94
2022-08-25T09:51:42.766Z,28.02
2022-08-25T09:54:13.108Z,28.09
2022-08-25T09:57:02.041Z,28.18
2022-08-25T09:59:36.484Z,28.24
2022-08-25T10:02:29.838Z,28.30
2022-08-25T10:04:57.382Z,28.36
2022-08-25T10:07:32.309Z,28.41
2022-08-25T10:10:03.250Z,28.44
2022-08-25T10:12:42.458Z,28.50
2022-08-25T10:15:16.270Z,28.58
2022-08-25T10:18:25.889Z,28.69
2022-08-25T10:21:13.625Z,28.80
2022-08-25T10:23:55.866Z,28.88
2022-08-25T10:27:00.260Z,28.97
2022-08-25T10:29:34.746Z,29.04
2022-08-25T10:32:27.703Z,29.13
2022-08-25T10:39:03.010Z,29.28
2022-08-25T10:41:53.485Z,29.35
2022-08-25T10:45:25.521Z,29.41
2022-08-25T10:47:58.710Z,29.49
2022-08-25T10:50:54.769Z,29.54
2022-08-25T10:53:56.312Z,29.60
2022-08-25T10:56:32.541Z,29.67
2022-08-25T10:59:23.956Z,29.76
2022-08-25T11:02:34.921Z,29.82
2022-08-25T11:05:29.066Z,29.90
2022-08-25T11:08:33.797Z,29.96
2022-08-25T11:11:40.374Z,30.03
2022-08-25T11:14:34.591Z,30.12
2022-08-25T11:17:18.347Z,30.19
2022-08-25T11:19:49.328Z,30.23
2022-08-25T11:22:46.519Z,30.35
2022-08-25T11:25:46.082Z,30.40
2022-08-25T11:28:15.806Z,30.47
2022-08-25T11:30:44.627Z,30.53
2022-08-25T11:33:19.572Z,30.62
2022-08-25T11:35:54.178Z,30.69
2022-08-25T11:38:36.973Z,30.72
2022-08-25T11:41:18.551Z,30.80
2022-08-25T11:44:06.896Z,30.87
2022-08-25T11:46:55.141Z,30.91
2022-08-25T11:49:37.931Z,31.00
2022-08-25T11:52:38.282Z,31.08
2022-08-25T11:55:16.496Z,31.18
2022-08-25T11:57:51.553Z,31.26
2022-08-25T12:01:54.469Z,31.35
2022-08-25T12:04:44.992Z,31.45
2022-08-25T12:07:22.831Z,31.50
2022-08-25T12:09:51.081Z,31.58
2022-08-25T12:12:42.820Z,31.62
2022-08-25T12:15:18.978Z,31.66
2022-08-25T12:18:13.589Z,31.76
2022-08-25T12:21:13.516Z,31.83
2022-08-25T12:24:11.934Z,31.87
2022-08-25T12:26:47.824Z,31.87
2022-08-25T12:29:22.680Z,31.94
2022-08-25T12:32:23.265Z,32.01
2022-08-25T12:35:09.137Z,32.09
2022-08-25T12:37:58.397Z,32.11
2022-08-25T12:40:33.470Z,32.11
2022-08-25T12:43:10.899Z,32.19
2022-08-25T12:45:43.411Z,32.27
2022-08-25T12:48:29.264Z,32.36
2022-08-25T12:51:20.535Z,32.45
2022-08-25T12:53:53.487Z,32.52
2022-08-25T12:56:39.578Z,32.52
2022-08-25T12:59:22.639Z,32.55
2022-08-25T13:02:36.728Z,32.63
2022-08-25T13:05:46.461Z,32.74
2022-08-25T13:09:01.292Z,32.80
2022-08-25T13:11:43.316Z,32.84
2022-08-25T13:14:41.671Z,32.87
2022-08-25T13:17:25.216Z,32.92
2022-08-25T13:19:52.322Z,33.00
2022-08-25T13:22:21.586Z,33.07
2022-08-25T13:24:51.220Z,33.09
2022-08-25T13:27:25.463Z,33.15
2022-08-25T13:29:58.236Z,33.16
2022-08-25T13:32:35.330Z,33.14
2022-08-25T13:35:20.974Z,33.22
2022-08-25T13:37:49.601Z,33.24
2022-08-25T13:40:33.844Z,33.33
2022-08-25T13:43:05.781Z,33.38
2022-08-25T13:45:45.466Z,33.48
2022-08-25T13:48:22.988Z,33.52
2022-08-25T13:51:09.872Z,33.55
2022-08-25T13:53:39.072Z,33.61
2022-08-25T13:56:07.325Z,33.63
2022-08-25T13:58:44.723Z,33.67
2022-08-25T14:01:45.841Z,33.72
2022-08-25T14:04:39.892Z,33.71
2022-08-25T14:07:21.636Z,33.76
2022-08-25T14:10:00.139Z,33.80
2022-08-25T14:12:39.585Z,33.84
2022-08-25T14:15:32.057Z,33.88
2022-08-25T14:18:13.825Z,33.96
2022-08-25T14:20:50.795Z,34.02
2022-08-25T14:23:31.239Z,33.98
2022-08-25T14:25:58.606Z,33.95
2022-08-25T14:28:30.361Z,33.97
2022-08-25T14:31:03.113Z,34.02
2022-08-25T14:34:04.677Z,34.07
2022-08-25T14:36:34.822Z,34.10
2022-08-25T14:39:08.693Z,34.07
2022-08-25T14:41:41.033Z,34.05
2022-08-25T14:44:10.068Z,34.03
2022-08-25T14:46:43.660Z,34.02
2022-08-25T14:49:24.702Z,34.00
2022-08-25T14:51:52.655Z,34.01
2022-08-25T14:54:23.756Z,34.02
2022-08-25T14:56:51.554Z,34.00
2022-08-25T14:59:19.026Z,33.91
2022-08-25T15:01:47.275Z,33.84
2022-08-25T15:04:22.481Z,33.79
2022-08-25T15:06:56.721Z,33.72
2022-08-25T15:09:25.394Z,33.67
2022-08-25T15:12:00.913Z,33.58
2022-08-25T15:14:28.874Z,33.53
2022-08-25T15:17:02.334Z,33.45
2022-08-25T15:19:29.833Z,33.43
2022-08-25T15:21:58.030Z,33.40
2022-08-25T15:24:28.604Z,33.34
2022-08-25T15:26:59.656Z,33.31
2022-08-25T15:29:30.174Z,33.25
2022-08-25T15:32:00.490Z,33.19
2022-08-25T15:34:28.830Z,33.15
2022-08-25T15:37:08.617Z,33.13
2022-08-25T15:39:37.911Z,33.09
2022-08-25T15:42:07.079Z,33.04
2022-08-25T15:44:36.136Z,32.99
2022-08-25T15:47:05.048Z,32.95
2022-08-25T15:49:32.403Z,32.91
2022-08-25T15:52:00.378Z,32.86
2022-08-25T15:54:29.026Z,32.84
2022-08-25T15:56:58.668Z,32.81
2022-08-25T15:59:28.379Z,32.78
2022-08-25T16:01:56.748Z,32.76
2022-08-25T16:04:28.322Z,32.74
2022-08-25T16:06:56.073Z,32.75
2022-08-25T16:09:23.752Z,32.71
2022-08-25T16:11:56.606Z,32.70
2022-08-25T16:14:26.361Z,32.70
2022-08-25T16:16:58.233Z,32.69
2022-08-25T16:19:28.528Z,32.67
2022-08-25T16:21:55.963Z,32.65
2022-08-25T16:24:24.397Z,32.65
2022-08-25T16:26:52.721Z,32.65
2022-08-25T16:29:23.026Z,32.63
2022-08-25T16:31:54.880Z,32.61
2022-08-25T16:34:24.440Z,32.59
2022-08-25T16:36:53.314Z,32.57
2022-08-25T16:39:23.835Z,32.54
2022-08-25T16:41:53.244Z,32.52
2022-08-25T16:44:22.898Z,32.50
2022-08-25T16:46:54.670Z,32.45
2022-08-25T16:49:24.195Z,32.42
2022-08-25T16:51:57.448Z,32.39
2022-08-25T16:54:44.543Z,32.28
2022-08-25T16:57:12.160Z,32.26
2022-08-25T16:59:39.654Z,32.26
2022-08-25T17:02:07.166Z,32.23
2022-08-25T17:04:34.518Z,32.19
2022-08-25T17:07:02.144Z,32.15
2022-08-25T17:09:30.689Z,32.12
2022-08-25T17:11:57.987Z,32.08
2022-08-25T17:14:25.397Z,32.05
2022-08-25T17:16:55.190Z,32.01
2022-08-25T17:19:23.948Z,31.97
2022-08-25T17:21:52.433Z,31.94
2022-08-25T17:24:19.665Z,31.92
2022-08-25T17:26:50.041Z,31.87
2022-08-25T17:29:18.465Z,31.84
2022-08-25T17:31:48.575Z,31.80
2022-08-25T17:34:16.946Z,31.78
2022-08-25T17:36:49.528Z,31.74
2022-08-25T17:39:18.424Z,31.71
2022-08-25T17:41:46.165Z,31.65
2022-08-25T17:44:13.713Z,31.61
2022-08-25T17:46:47.312Z,31.57
2022-08-25T17:49:18.686Z,31.51
2022-08-25T17:51:45.655Z,31.48
2022-08-25T17:54:13.728Z,31.45
2022-08-25T17:56:41.336Z,31.38
2022-08-25T17:59:09.304Z,31.33
2022-08-25T18:01:40.747Z,31.28
2022-08-25T18:04:17.522Z,31.21
2022-08-25T18:06:47.552Z,31.15
2022-08-25T18:09:16.515Z,31.09
2022-08-25T18:11:45.815Z,31.03
2022-08-25T18:14:16.445Z,30.97
2022-08-25T18:16:43.652Z,30.90
2022-08-25T18:19:12.454Z,30.84
2022-08-25T18:21:41.702Z,30.79
2022-08-25T18:24:11.211Z,30.72
2022-08-25T18:26:38.263Z,30.67
2022-08-25T18:29:05.850Z,30.63
2022-08-25T18:31:33.152Z,30.58
2022-08-25T18:34:00.235Z,30.53
2022-08-25T18:36:27.712Z,30.47
2022-08-25T18:39:13.769Z,30.42
2022-08-25T18:41:42.667Z,30.37
2022-08-25T18:44:12.349Z,30.32
2022-08-25T18:46:43.075Z,30.27
2022-08-25T18:49:15.595Z,30.24
2022-08-25T18:51:45.143Z,30.20
2022-08-25T18:54:22.705Z,30.17
2022-08-25T18:56:53.917Z,30.15
2022-08-25T18:59:23.625Z,30.12
2022-08-25T19:01:54.121Z,30.10
2022-08-25T19:04:28.674Z,30.05
2022-08-25T19:07:01.214Z,30.01
2022-08-25T19:09:30.609Z,29.98
2022-08-25T19:11:58.159Z,29.95
2022-08-25T19:14:26.468Z,29.91
2022-08-25T19:16:54.521Z,29.88
2022-08-25T19:19:23.146Z,29.83
2022-08-25T19:21:50.963Z,29.78
2022-08-25T19:24:19.424Z,29.74
2022-08-25T19:26:46.895Z,29.71
2022-08-25T19:29:17.811Z,29.68
2022-08-25T19:31:48.152Z,29.66
2022-08-25T19:34:22.723Z,29.62
2022-08-25T19:36:50.955Z,29.59
2022-08-25T19:39:18.552Z,29.54
2022-08-25T19:41:46.707Z,29.49
2022-08-25T19:44:16.080Z,29.45
2022-08-25T19:46:45.231Z,29.41
2022-08-25T19:49:22.478Z,29.37
2022-08-25T19:51:53.217Z,29.33
2022-08-25T19:54:34.269Z,29.31
2022-08-25T19:57:06.444Z,29.21
2022-08-25T19:59:43.122Z,29.20
2022-08-25T20:02:16.829Z,29.20
2022-08-25T20:04:50.003Z,29.12
2022-08-25T20:07:23.943Z,29.09
2022-08-25T20:09:54.304Z,29.07
2022-08-25T20:12:23.783Z,29.04
2022-08-25T20:14:52.226Z,28.99
2022-08-25T20:17:24.295Z,28.96
2022-08-25T20:19:59.610Z,28.91
2022-08-25T20:22:29.980Z,28.86
2022-08-25T20:25:02.774Z,28.86
2022-08-25T20:27:39.741Z,28.82
2022-08-25T20:30:27.765Z,28.80
2022-08-25T20:32:57.095Z,28.78
2022-08-25T20:35:27.456Z,28.76
2022-08-25T20:37:59.360Z,28.76
2022-08-25T20:40:30.127Z,28.73
2022-08-25T20:43:03.027Z,28.70
2022-08-25T20:45:30.446Z,28.66
2022-08-25T20:47:57.439Z,28.64
2022-08-25T20:50:25.306Z,28.60
2022-08-25T20:52:56.689Z,28.60
2022-08-25T20:55:25.052Z,28.57
2022-08-25T20:57:53.629Z,28.56
2022-08-25T21:00:23.612Z,28.53
2022-08-25T21:02:52.947Z,28.52
2022-08-25T21:05:20.710Z,28.47
2022-08-25T21:07:48.411Z,28.45
2022-08-25T21:10:16.222Z,28.41
2022-08-25T21:12:45.075Z,28.35
2022-08-25T21:15:17.028Z,28.34
2022-08-25T21:17:50.663Z,28.29
2022-08-25T21:20:18.905Z,28.25
2022-08-25T21:22:55.790Z,28.22
2022-08-25T21:25:24.163Z,28.18
2022-08-25T21:27:52.568Z,28.15
2022-08-25T21:30:19.703Z,28.12
2022-08-25T21:32:52.886Z,28.08
2022-08-25T21:35:23.450Z,28.04
2022-08-25T21:37:53.273Z,28.02
2022-08-25T21:40:23.667Z,28.01
2022-08-25T21:42:52.376Z,27.99
2022-08-25T21:45:20.890Z,27.97
2022-08-25T21:47:49.035Z,27.94
2022-08-25T21:50:15.986Z,27.91
2022-08-25T21:52:42.954Z,27.91
2022-08-25T21:55:16.054Z,27.88
2022-08-25T21:57:44.190Z,27.86
2022-08-25T22:00:13.559Z,27.84
2022-08-25T22:02:44.051Z,27.81
2022-08-25T22:05:12.414Z,27.78
2022-08-25T22:07:43.996Z,27.73
2022-08-25T22:10:17.795Z,27.71
2022-08-25T22:12:47.979Z,27.68
2022-08-25T22:15:16.479Z,27.67
2022-08-25T22:17:47.892Z,27.63
2022-08-25T22:20:18.666Z,27.60
2022-08-25T22:22:46.404Z,27.56
2022-08-25T22:25:13.865Z,27.53
2022-08-25T22:27:41.674Z,27.50
2022-08-25T22:30:09.592Z,27.47
2022-08-25T22:32:37.130Z,27.44
2022-08-25T22:35:04.878Z,27.44
2022-08-25T22:37:31.959Z,27.42
2022-08-25T22:40:04.321Z,27.41
2022-08-25T22:42:31.509Z,27.40
2022-08-25T22:44:58.583Z,27.37
2022-08-25T22:47:25.560Z,27.35
2022-08-25T22:49:55.386Z,27.34
2022-08-25T22:52:22.541Z,27.33
2022-08-25T22:55:01.163Z,27.32
2022-08-25T22:57:28.474Z,27.31
2022-08-25T22:59:56.719Z,27.28
2022-08-25T23:02:23.741Z,27.25
2022-08-25T23:04:50.917Z,27.21
2022-08-25T23:07:24.030Z,27.19
2022-08-25T23:09:51.540Z,27.16
2022-08-25T23:12:18.588Z,27.10
2022-08-25T23:14:46.040Z,27.08
2022-08-25T23:17:13.822Z,27.03
2022-08-25T23:19:40.818Z,27.00
2022-08-25T23:22:10.895Z,26.97
2022-08-25T23:24:45.927Z,26.95
2022-08-25T23:27:17.079Z,26.91
2022-08-25T23:29:48.737Z,26.90
2022-08-25T23:32:18.995Z,26.87
2022-08-25T23:34:47.344Z,26.82
2022-08-25T23:37:16.261Z,26.78
2022-08-25T23:39:49.508Z,26.75
2022-08-25T23:42:18.022Z,26.72
2022-08-25T23:44:45.249Z,26.67
2022-08-25T23:47:12.420Z,26.64
2022-08-25T23:49:39.853Z,26.61
2022-08-25T23:52:07.119Z,26.58
2022-08-25T23:54:34.151Z,26.56
2022-08-25T23:57:01.609Z,26.53
2022-08-25T23:59:28.992Z,26.53
